Time;durP1;ratioP1;P1;durP2;ratioP2;P2;SDS_P1;SDS_P2;PMS_P1;PMS_P2;Temp;Humidity;BMP_temperature;BMP_pressure;BME280_temperature;BME280_humidity;BME280_pressure;Samples;Min_cycle;Max_cycle;Signal;HPM_P1;HPM_P2
2023/02/27 00:02:16;;;;;;;7.85;3.10;;;-0.90;99.90;;;;;;5051263;28;20037;-48
2023/02/27 00:04:42;;;;;;;5.95;2.78;;;-0.90;99.90;;;;;;5051244;28;20028;-47
2023/02/27 00:07:07;;;;;;;5.88;3.20;;;-0.90;99.90;;;;;;5051205;28;20371;-48
2023/02/27 00:09:33;;;;;;;5.38;2.60;;;-1.00;99.90;;;;;;5051206;28;20048;-47
2023/02/27 00:11:59;;;;;;;7.93;3.20;;;-1.00;99.90;;;;;;5051126;28;20032;-48
2023/02/27 00:14:25;;;;;;;5.53;2.92;;;-1.00;99.90;;;;;;5050593;28;20136;-50
2023/02/27 00:16:50;;;;;;;7.55;3.83;;;-1.00;99.90;;;;;;5050869;28;20021;-50
2023/02/27 00:19:16;;;;;;;8.38;4.03;;;-1.00;99.90;;;;;;5051235;28;20118;-48
2023/02/27 00:21:43;;;;;;;8.95;3.90;;;-1.10;99.90;;;;;;5050874;28;20053;-48
2023/02/27 00:24:10;;;;;;;5.82;2.95;;;-1.10;99.90;;;;;;5050354;28;20040;-48
2023/02/27 00:26:36;;;;;;;7.28;3.38;;;-1.10;99.90;;;;;;5051175;28;20024;-49
2023/02/27 00:29:02;;;;;;;8.60;3.30;;;-1.10;99.90;;;;;;5050530;28;20391;-48
2023/02/27 00:31:28;;;;;;;6.93;3.45;;;-1.20;99.90;;;;;;5051319;28;20090;-48
2023/02/27 00:33:54;;;;;;;7.80;3.65;;;-1.20;99.90;;;;;;5050164;28;20025;-48
2023/02/27 00:36:19;;;;;;;6.80;3.85;;;-1.30;99.90;;;;;;5050227;28;20032;-49
2023/02/27 00:38:45;;;;;;;7.90;3.22;;;-1.30;99.90;;;;;;5050604;28;20466;-49
2023/02/27 00:41:11;;;;;;;6.68;3.65;;;-1.30;99.90;;;;;;5050957;28;20470;-48
2023/02/27 00:43:36;;;;;;;6.18;4.10;;;-1.30;99.90;;;;;;5050256;28;20706;-50
2023/02/27 00:46:02;;;;;;;7.03;3.70;;;-1.30;99.90;;;;;;5048888;28;20025;-48
2023/02/27 00:48:27;;;;;;;9.15;3.95;;;-1.40;99.90;;;;;;5050410;28;20021;-48
2023/02/27 00:50:53;;;;;;;8.68;3.72;;;-1.40;99.90;;;;;;5050372;28;20364;-48
2023/02/27 00:53:19;;;;;;;6.00;3.22;;;-1.40;99.90;;;;;;5050052;28;20075;-48
2023/02/27 00:55:44;;;;;;;5.28;3.15;;;-1.40;99.90;;;;;;5050172;28;20025;-48
2023/02/27 00:58:10;;;;;;;6.70;3.13;;;-1.40;99.90;;;;;;5050538;28;20502;-49
2023/02/27 01:00:36;;;;;;;7.13;4.45;;;-1.40;99.90;;;;;;5050290;28;20059;-51
2023/02/27 01:03:02;;;;;;;6.75;3.60;;;-1.50;99.90;;;;;;5048236;28;20025;-49
2023/02/27 01:05:28;;;;;;;6.00;3.08;;;-1.40;99.90;;;;;;5050342;28;20039;-49
2023/02/27 01:07:54;;;;;;;5.85;2.95;;;-1.50;99.90;;;;;;5049826;28;20642;-48
2023/02/27 01:10:19;;;;;;;4.78;2.90;;;-1.50;99.90;;;;;;5049972;28;20024;-50
2023/02/27 01:12:45;;;;;;;6.03;3.00;;;-1.50;99.90;;;;;;5049565;28;20078;-49
2023/02/27 01:15:11;;;;;;;7.55;3.55;;;-1.50;99.90;;;;;;5050089;28;20021;-50
2023/02/27 01:17:37;;;;;;;5.65;2.70;;;-1.60;99.90;;;;;;5049854;28;20457;-49
2023/02/27 01:20:05;;;;;;;8.25;3.25;;;-1.60;99.90;;;;;;5049931;28;20036;-49
2023/02/27 01:22:31;;;;;;;5.35;3.03;;;-1.60;99.90;;;;;;5049724;28;20108;-51
2023/02/27 01:24:57;;;;;;;6.95;3.55;;;-1.60;99.90;;;;;;5048981;28;20024;-52
2023/02/27 01:27:22;;;;;;;6.68;2.83;;;-1.60;99.90;;;;;;5050416;28;20107;-51
2023/02/27 01:29:48;;;;;;;5.93;3.15;;;-1.60;99.90;;;;;;5049741;28;20428;-48
2023/02/27 01:32:13;;;;;;;5.25;2.95;;;-1.70;99.90;;;;;;5048214;28;20025;-49
2023/02/27 01:34:39;;;;;;;4.53;2.97;;;-1.60;99.90;;;;;;5048704;28;20055;-49
2023/02/27 01:37:04;;;;;;;8.98;3.72;;;-1.70;99.90;;;;;;5049410;28;20421;-49
2023/02/27 01:39:31;;;;;;;4.68;2.70;;;-1.70;99.90;;;;;;5049735;28;20033;-48
2023/02/27 01:41:57;;;;;;;4.63;3.03;;;-1.70;99.90;;;;;;5049254;28;20078;-50
2023/02/27 01:44:27;;;;;;;6.95;2.47;;;-1.70;99.90;;;;;;5048802;28;20404;-48
2023/02/27 01:46:53;;;;;;;7.38;3.33;;;-1.70;99.90;;;;;;5048473;28;20036;-48
2023/02/27 01:49:32;;;;;;;6.40;3.33;;;-1.70;99.90;;;;;;5044860;28;20045;-47
2023/02/27 01:52:04;;;;;;;7.25;2.97;;;-1.70;99.90;;;;;;5048766;28;20518;-48
2023/02/27 01:54:33;;;;;;;7.22;3.15;;;-1.70;99.90;;;;;;5048668;28;20025;-48
2023/02/27 01:57:01;;;;;;;5.22;3.05;;;-1.70;99.90;;;;;;5049167;28;20017;-48
2023/02/27 01:59:27;;;;;;;9.18;3.15;;;-1.70;99.90;;;;;;5048820;28;20029;-48
2023/02/27 02:01:54;;;;;;;4.45;3.00;;;-1.70;99.90;;;;;;5048723;28;20025;-47
2023/02/27 02:04:33;;;;;;;4.82;2.85;;;-1.70;99.90;;;;;;5048597;28;20029;-47
2023/02/27 02:07:08;;;;;;;7.70;3.45;;;-1.80;99.90;;;;;;5048876;28;20040;-47
2023/02/27 02:09:40;;;;;;;8.40;4.25;;;-1.80;99.90;;;;;;5048892;28;20058;-47
2023/02/27 02:12:07;;;;;;;6.65;3.45;;;-1.80;99.90;;;;;;5048745;28;20038;-48
2023/02/27 02:14:32;;;;;;;3.63;2.95;;;-1.80;99.90;;;;;;5048488;28;20021;-47
2023/02/27 02:17:31;;;;;;;8.35;3.75;;;-1.90;99.90;;;;;;5049022;28;20017;-48
2023/02/27 02:20:16;;;;;;;6.50;3.03;;;-1.90;99.90;;;;;;5048702;28;20027;-49
2023/02/27 02:23:04;;;;;;;5.55;3.15;;;-1.90;99.90;;;;;;5048476;28;20096;-48
2023/02/27 02:26:17;;;;;;;4.97;2.83;;;-1.90;99.90;;;;;;5048669;28;20033;-48
2023/02/27 02:28:45;;;;;;;6.22;3.10;;;-1.90;99.90;;;;;;5046359;28;20033;-48
2023/02/27 02:31:41;;;;;;;6.40;2.88;;;-2.00;99.90;;;;;;5048341;28;20222;-48
2023/02/27 02:34:30;;;;;;;9.68;3.22;;;-1.90;99.90;;;;;;5048370;28;20052;-50
2023/02/27 02:37:19;;;;;;;9.20;3.38;;;-1.90;99.90;;;;;;5042435;28;20025;-49
2023/02/27 02:40:00;;;;;;;7.68;3.60;;;-1.90;99.90;;;;;;5048194;28;20049;-49
2023/02/27 02:42:47;;;;;;;5.65;3.15;;;-2.00;99.90;;;;;;5049694;28;20021;-48
2023/02/27 02:45:25;;;;;;;10.25;3.97;;;-1.90;99.90;;;;;;5052449;28;20029;-49
2023/02/27 02:48:10;;;;;;;8.30;4.05;;;-1.90;99.90;;;;;;5052818;28;20107;-48
2023/02/27 02:51:04;;;;;;;8.05;3.03;;;-2.00;99.90;;;;;;5052550;28;20028;-52
2023/02/27 02:53:35;;;;;;;7.70;3.15;;;-1.90;99.90;;;;;;5051434;28;20037;-48
2023/02/27 02:56:13;;;;;;;7.10;3.53;;;-1.90;99.90;;;;;;5052675;28;20017;-51
2023/02/27 02:58:53;;;;;;;12.27;4.07;;;-1.90;99.90;;;;;;5052745;28;20228;-50
2023/02/27 03:01:22;;;;;;;;;;;-2.00;99.90;;;;;;5051290;28;20340;-43
2023/02/27 03:03:56;;;;;;;5.72;3.58;;;-2.00;99.90;;;;;;5052113;28;20177;-42
2023/02/27 03:06:29;;;;;;;6.85;3.38;;;-2.00;99.90;;;;;;5051030;28;20488;-42
2023/02/27 03:09:22;;;;;;;5.38;3.65;;;-2.00;99.90;;;;;;5050775;28;20397;-42
2023/02/27 03:11:51;;;;;;;10.80;3.58;;;-2.00;99.90;;;;;;5042299;28;20037;-42
2023/02/27 03:15:02;;;;;;;8.48;4.35;;;-2.10;99.90;;;;;;5051635;28;20055;-42
2023/02/27 03:17:46;;;;;;;;;;;-2.10;99.90;;;;;;4989885;28;20058;-43
2023/02/27 03:20:19;;;;;;;7.15;3.78;;;-2.10;99.90;;;;;;4989795;28;19912;-42
2023/02/27 03:22:48;;;;;;;7.03;3.22;;;-2.10;99.90;;;;;;5031770;28;20415;-42
2023/02/27 03:25:15;;;;;;;9.65;4.05;;;-2.20;99.90;;;;;;5052063;28;20075;-42
2023/02/27 03:27:46;;;;;;;6.18;3.55;;;-2.20;99.90;;;;;;5048048;28;20110;-41
2023/02/27 03:30:19;;;;;;;6.22;3.33;;;-2.20;99.90;;;;;;5050046;28;20048;-41
2023/02/27 03:32:55;;;;;;;7.15;3.90;;;-2.20;99.90;;;;;;5051670;28;20021;-42
2023/02/27 03:35:23;;;;;;;8.25;4.25;;;-2.30;99.90;;;;;;5052135;28;20074;-42
2023/02/27 03:38:05;;;;;;;8.90;3.63;;;-2.20;99.90;;;;;;5050268;28;20478;-41
2023/02/27 03:41:00;;;;;;;8.70;3.88;;;-2.30;99.90;;;;;;5050972;28;20510;-42
2023/02/27 03:43:37;;;;;;;8.50;3.40;;;-2.30;99.90;;;;;;5050417;28;20024;-41
2023/02/27 03:46:11;;;;;;;5.75;3.47;;;-2.30;99.90;;;;;;5051403;28;20029;-42
2023/02/27 03:48:37;;;;;;;7.55;3.80;;;-2.30;99.90;;;;;;5050479;28;20506;-41
2023/02/27 03:51:03;;;;;;;10.77;3.90;;;-2.30;99.90;;;;;;5051658;28;20474;-41
2023/02/27 03:53:46;;;;;;;6.13;3.40;;;-2.30;99.90;;;;;;5049497;28;20060;-41
2023/02/27 03:56:15;;;;;;;8.63;3.47;;;-2.30;99.90;;;;;;5051622;28;20031;-42
2023/02/27 03:58:41;;;;;;;8.40;3.70;;;-2.30;99.90;;;;;;5051397;28;20049;-42
2023/02/27 04:01:07;;;;;;;5.38;2.92;;;-2.30;99.90;;;;;;5051143;28;20061;-41
2023/02/27 04:03:38;;;;;;;10.57;3.60;;;-2.30;99.90;;;;;;5051081;28;20430;-42
2023/02/27 04:07:21;;;;;;;6.75;3.50;;;-2.30;99.90;;;;;;5050432;28;20036;-41
2023/02/27 04:09:24;;;;;;;5.03;3.25;;;-2.30;99.90;;;;;;5051013;28;20120;-41
2023/02/27 04:12:25;;;;;;;10.47;3.80;;;-2.30;99.90;;;;;;5049708;28;20375;-42
2023/02/27 04:15:33;;;;;;;8.88;3.47;;;-2.30;99.90;;;;;;5006144;28;20026;-41
2023/02/27 04:18:10;;;;;;;6.57;3.58;;;-2.30;99.90;;;;;;5050809;28;20106;-40
2023/02/27 04:20:43;;;;;;;6.78;3.08;;;-2.30;99.90;;;;;;5050981;28;20017;-40
2023/02/27 04:23:22;;;;;;;9.48;3.80;;;-2.30;99.90;;;;;;5049399;28;20403;-41
2023/02/27 04:26:13;;;;;;;8.55;3.92;;;-2.30;99.90;;;;;;5049022;28;20083;-41
2023/02/27 04:28:46;;;;;;;;;;;-2.30;99.90;;;;;;5051450;28;20025;-41
2023/02/27 04:31:27;;;;;;;9.25;3.50;;;-2.30;99.90;;;;;;5049446;28;20366;-41
2023/02/27 04:33:59;;;;;;;6.90;2.97;;;-2.40;99.90;;;;;;5049271;28;20036;-42
2023/02/27 04:36:42;;;;;;;5.53;3.30;;;-2.40;99.90;;;;;;5050625;28;20444;-42
2023/02/27 04:39:23;;;;;;;5.75;3.30;;;-2.40;99.90;;;;;;5048479;28;20475;-42
2023/02/27 04:41:50;;;;;;;;;;;-2.40;99.90;;;;;;5050878;28;20120;-42
2023/02/27 04:44:18;;;;;;;6.05;3.45;;;-2.50;99.90;;;;;;5048814;28;20381;-42
2023/02/27 04:46:45;;;;;;;7.07;3.38;;;-2.50;99.90;;;;;;5050628;28;20037;-42
2023/02/27 04:49:30;;;;;;;8.13;4.10;;;-2.40;99.90;;;;;;5050628;28;20328;-42
2023/02/27 04:52:09;;;;;;;5.55;3.58;;;-2.50;99.90;;;;;;5049076;28;20087;-42
2023/02/27 04:54:49;;;;;;;7.67;3.70;;;-2.50;99.90;;;;;;5050469;28;20017;-42
2023/02/27 04:57:35;;;;;;;6.47;3.00;;;-2.50;99.90;;;;;;5050347;28;20059;-43
2023/02/27 05:00:05;;;;;;;9.85;4.20;;;-2.40;99.90;;;;;;5050414;28;20021;-42
2023/02/27 05:02:34;;;;;;;8.50;3.90;;;-2.40;99.90;;;;;;5049998;28;20079;-41
2023/02/27 05:05:06;;;;;;;6.32;3.53;;;-2.40;99.90;;;;;;5049196;28;20394;-41
2023/02/27 05:07:46;;;;;;;7.95;3.78;;;-2.50;99.90;;;;;;5050010;28;20457;-41
2023/02/27 05:10:35;;;;;;;9.30;3.80;;;-2.40;99.90;;;;;;5049986;28;20021;-42
2023/02/27 05:13:11;;;;;;;5.40;3.72;;;-2.40;99.90;;;;;;5048812;28;20559;-43
2023/02/27 05:15:51;;;;;;;6.32;3.90;;;-2.50;99.90;;;;;;5049969;28;20033;-42
2023/02/27 05:18:19;;;;;;;8.65;4.07;;;-2.40;99.90;;;;;;5050184;28;20029;-42
2023/02/27 05:21:05;;;;;;;9.63;4.55;;;-2.40;99.90;;;;;;5049980;28;20110;-42
2023/02/27 05:23:50;;;;;;;7.90;4.05;;;-2.40;99.90;;;;;;5049237;28;20367;-40
2023/02/27 05:26:31;;;;;;;5.68;3.42;;;-2.40;99.90;;;;;;5049623;28;20039;-42
2023/02/27 05:29:18;;;;;;;9.75;3.53;;;-2.40;99.90;;;;;;5048968;28;20053;-44
2023/02/27 05:31:55;;;;;;;9.55;4.10;;;-2.40;99.90;;;;;;5049585;28;20521;-42
2023/02/27 05:34:31;;;;;;;5.30;3.53;;;-2.50;99.90;;;;;;5049664;28;20063;-43
2023/02/27 05:37:06;;;;;;;6.53;3.55;;;-2.50;99.90;;;;;;5049812;28;20017;-43
2023/02/27 05:39:36;;;;;;;7.20;4.03;;;-2.50;99.90;;;;;;5049630;28;20013;-43
2023/02/27 05:42:07;;;;;;;4.40;2.72;;;-2.50;99.90;;;;;;5048283;28;20025;-42
2023/02/27 05:44:36;;;;;;;9.40;3.83;;;-2.50;99.90;;;;;;5048798;28;20071;-42
2023/02/27 05:47:06;;;;;;;8.95;4.55;;;-2.50;99.90;;;;;;5048996;28;20041;-42
2023/02/27 05:49:52;;;;;;;6.90;3.97;;;-2.50;99.90;;;;;;5049506;28;20073;-42
2023/02/27 05:52:23;;;;;;;9.30;4.70;;;-2.60;99.90;;;;;;5049094;28;20032;-42
2023/02/27 05:55:03;;;;;;;8.73;4.53;;;-2.60;99.90;;;;;;5047676;28;20083;-42
2023/02/27 05:57:34;;;;;;;11.52;5.32;;;-2.50;99.90;;;;;;5048809;28;20530;-44
2023/02/27 06:00:05;;;;;;;11.73;5.53;;;-2.60;99.90;;;;;;5043405;28;20033;-44
2023/02/27 06:02:31;;;;;;;11.45;5.22;;;-2.60;99.90;;;;;;5043469;28;20116;-43
2023/02/27 06:04:58;;;;;;;8.95;5.22;;;-2.60;99.90;;;;;;5045859;28;20106;-43
2023/02/27 06:07:23;;;;;;;11.13;4.88;;;-2.60;99.90;;;;;;5046310;28;20029;-45
2023/02/27 06:09:49;;;;;;;9.63;4.78;;;-2.60;99.90;;;;;;5048597;28;20382;-41
2023/02/27 06:12:15;;;;;;;11.80;5.22;;;-2.60;99.90;;;;;;5047938;28;20116;-41
2023/02/27 06:14:40;;;;;;;9.93;4.80;;;-2.60;99.90;;;;;;5047650;28;20128;-41
2023/02/27 06:17:06;;;;;;;7.60;4.80;;;-2.60;99.90;;;;;;5046590;28;20020;-41
2023/02/27 06:19:31;;;;;;;9.30;5.13;;;-2.60;99.90;;;;;;5048487;28;20021;-39
2023/02/27 06:21:57;;;;;;;11.38;5.13;;;-2.60;99.90;;;;;;5047067;28;20459;-41
2023/02/27 06:24:22;;;;;;;9.40;5.35;;;-2.60;99.90;;;;;;5048533;28;20029;-41
2023/02/27 06:26:48;;;;;;;10.88;6.10;;;-2.60;99.90;;;;;;5048607;28;20104;-39
2023/02/27 06:29:13;;;;;;;12.05;5.25;;;-2.60;99.90;;;;;;5048116;28;20032;-39
2023/02/27 06:31:39;;;;;;;9.48;4.93;;;-2.60;99.90;;;;;;5048044;28;20024;-40
2023/02/27 06:34:04;;;;;;;12.77;5.50;;;-2.50;99.90;;;;;;5048262;28;20104;-40
2023/02/27 06:36:30;;;;;;;18.20;5.85;;;-2.50;99.90;;;;;;5048491;28;20025;-40
2023/02/27 06:38:56;;;;;;;16.50;5.97;;;-2.40;99.90;;;;;;5048466;28;20049;-40
2023/02/27 06:41:22;;;;;;;15.27;6.32;;;-2.30;99.90;;;;;;5047645;28;20056;-40
2023/02/27 06:43:48;;;;;;;8.70;4.63;;;-2.30;99.90;;;;;;5041445;28;20442;-40
2023/02/27 06:46:13;;;;;;;9.43;5.05;;;-2.20;99.90;;;;;;5043409;28;20028;-40
2023/02/27 06:48:39;;;;;;;10.52;5.43;;;-2.10;99.90;;;;;;5052897;28;20035;-40
2023/02/27 06:51:04;;;;;;;15.00;6.88;;;-2.00;99.90;;;;;;5047194;28;20125;-41
2023/02/27 06:53:30;;;;;;;11.38;6.05;;;-1.90;99.90;;;;;;5047447;28;20096;-40
2023/02/27 06:55:55;;;;;;;11.75;5.78;;;-1.80;99.90;;;;;;5047862;28;20701;-40
2023/02/27 06:58:23;;;;;;;11.27;4.93;;;-1.70;99.90;;;;;;5047119;28;20013;-41
2023/02/27 07:00:49;;;;;;;11.93;5.65;;;-1.70;99.90;;;;;;5047086;28;20018;-40
2023/02/27 07:03:15;;;;;;;9.48;5.15;;;-1.60;99.90;;;;;;5046436;28;20006;-40
2023/02/27 07:05:41;;;;;;;9.70;5.57;;;-1.60;99.90;;;;;;5046850;28;20021;-41
2023/02/27 07:08:07;;;;;;;13.10;5.70;;;-1.50;99.90;;;;;;5047328;28;20025;-40
2023/02/27 07:10:32;;;;;;;10.57;5.50;;;-1.50;99.90;;;;;;5047741;28;20021;-40
2023/02/27 07:12:58;;;;;;;8.93;5.13;;;-1.50;99.90;;;;;;5045855;28;20927;-40
2023/02/27 07:15:23;;;;;;;14.35;5.40;;;-1.40;99.90;;;;;;5047427;28;20565;-41
2023/02/27 07:17:49;;;;;;;16.88;5.07;;;-1.40;99.90;;;;;;5050210;28;20021;-40
2023/02/27 07:20:14;;;;;;;12.38;5.38;;;-1.40;99.90;;;;;;5067184;28;20027;-41
2023/02/27 07:22:40;;;;;;;12.60;5.13;;;-1.30;99.90;;;;;;5046956;28;20063;-42
2023/02/27 07:25:07;;;;;;;15.52;4.90;;;-1.20;99.90;;;;;;5047523;28;20528;-41
2023/02/27 07:27:33;;;;;;;16.27;6.15;;;-1.10;99.90;;;;;;5055225;28;20459;-41
2023/02/27 07:29:59;;;;;;;12.00;5.38;;;-1.00;99.90;;;;;;5070218;28;20058;-41
2023/02/27 07:32:25;;;;;;;14.23;5.78;;;-0.80;99.90;;;;;;5071331;28;20504;-41
2023/02/27 07:34:51;;;;;;;12.30;5.72;;;-0.70;99.90;;;;;;5071151;28;20025;-41
2023/02/27 07:37:16;;;;;;;11.18;5.88;;;-0.70;99.90;;;;;;5070873;28;20048;-42
2023/02/27 07:39:43;;;;;;;14.55;5.72;;;-0.50;99.90;;;;;;5050577;28;20083;-41
2023/02/27 07:42:09;;;;;;;10.60;6.55;;;-0.40;99.90;;;;;;5050537;28;20593;-41
2023/02/27 07:44:34;;;;;;;9.75;5.35;;;-0.30;99.90;;;;;;5049872;28;20112;-42
2023/02/27 07:47:00;;;;;;;9.00;5.03;;;-0.20;99.90;;;;;;5051461;28;20037;-41
2023/02/27 07:49:26;;;;;;;15.93;5.88;;;-0.10;99.90;;;;;;5050165;28;20068;-41
2023/02/27 07:55:14;;;;;;;10.60;5.57;;;0.10;99.90;;;;;;5037339;28;20028;-41
2023/02/27 07:57:39;;;;;;;12.13;6.43;;;0.20;99.90;;;;;;5050864;28;20021;-41
2023/02/27 08:00:06;;;;;;;10.70;5.13;;;0.30;99.90;;;;;;5050550;28;20104;-43
2023/02/27 08:02:32;;;;;;;10.70;5.70;;;0.30;99.90;;;;;;5050307;28;20438;-41
2023/02/27 08:04:58;;;;;;;15.65;5.68;;;0.50;99.90;;;;;;5049631;28;20058;-42
2023/02/27 08:07:24;;;;;;;11.55;5.38;;;0.60;99.90;;;;;;5050865;28;20513;-41
2023/02/27 08:09:50;;;;;;;9.07;5.57;;;0.70;99.90;;;;;;5050371;28;20028;-41
2023/02/27 08:12:15;;;;;;;11.95;5.90;;;0.90;99.90;;;;;;5049687;28;20029;-42
2023/02/27 08:14:41;;;;;;;10.93;5.57;;;1.00;99.90;;;;;;5046066;28;20025;-43
2023/02/27 08:17:06;;;;;;;13.18;6.15;;;1.10;99.90;;;;;;5049308;28;20371;-41
2023/02/27 08:19:32;;;;;;;14.40;6.35;;;1.20;99.90;;;;;;5050113;28;20028;-41
2023/02/27 08:21:57;;;;;;;12.07;6.72;;;1.20;99.90;;;;;;5049351;28;20043;-41
2023/02/27 08:24:23;;;;;;;11.82;6.18;;;1.20;99.90;;;;;;5049763;28;20035;-41
2023/02/27 08:26:49;;;;;;;11.15;5.93;;;1.10;99.90;;;;;;5050470;28;20625;-41
2023/02/27 08:29:14;;;;;;;9.25;5.85;;;1.20;99.90;;;;;;5049739;28;20035;-40
2023/02/27 08:31:40;;;;;;;17.60;6.90;;;1.10;99.90;;;;;;5049471;28;20025;-41
2023/02/27 08:34:05;;;;;;;12.32;6.40;;;1.10;99.90;;;;;;5049463;28;20025;-41
2023/02/27 08:36:31;;;;;;;14.80;5.95;;;1.20;99.90;;;;;;5067035;28;20091;-41
2023/02/27 08:38:57;;;;;;;10.43;6.65;;;1.30;99.90;;;;;;5069855;28;20107;-41
2023/02/27 08:41:22;;;;;;;13.77;6.80;;;1.60;99.90;;;;;;5068973;28;20550;-41
2023/02/27 08:43:48;;;;;;;8.38;5.25;;;1.70;99.90;;;;;;5069392;28;20032;-41
2023/02/27 08:46:14;;;;;;;10.75;5.43;;;1.80;99.90;;;;;;5061680;28;20398;-41
2023/02/27 08:48:41;;;;;;;9.65;5.88;;;2.00;99.90;;;;;;5057007;28;20028;-42
2023/02/27 08:51:07;;;;;;;11.48;5.72;;;2.20;99.90;;;;;;5069849;28;20021;-43
2023/02/27 08:53:33;;;;;;;10.48;5.60;;;2.20;99.90;;;;;;5066129;28;20033;-41
2023/02/27 08:55:58;;;;;;;11.73;5.65;;;2.20;99.90;;;;;;5050360;28;20109;-41
2023/02/27 08:58:24;;;;;;;17.77;6.38;;;2.10;99.90;;;;;;5050208;28;20470;-43
2023/02/27 09:00:49;;;;;;;16.70;6.00;;;2.00;99.90;;;;;;5050275;28;20094;-42
2023/02/27 09:03:15;;;;;;;10.93;6.25;;;2.00;99.90;;;;;;5049813;28;20021;-42
2023/02/27 09:05:41;;;;;;;16.77;6.88;;;1.90;99.90;;;;;;5050372;28;20029;-42
2023/02/27 09:08:07;;;;;;;11.80;7.22;;;1.90;99.90;;;;;;5050363;28;20032;-42
2023/02/27 09:10:33;;;;;;;14.05;7.30;;;1.80;99.90;;;;;;5049981;28;20021;-43
2023/02/27 09:12:59;;;;;;;13.60;6.20;;;2.00;99.90;;;;;;5047146;28;20028;-42
2023/02/27 09:15:25;;;;;;;13.07;7.32;;;2.10;99.90;;;;;;5049718;28;20032;-42
2023/02/27 09:17:51;;;;;;;15.82;6.40;;;2.20;99.90;;;;;;5050015;28;20104;-42
2023/02/27 09:20:17;;;;;;;10.15;5.63;;;2.70;99.90;;;;;;5049873;28;20389;-40
2023/02/27 09:22:42;;;;;;;7.28;4.75;;;4.20;99.90;;;;;;5049447;28;20108;-43
2023/02/27 09:25:08;;;;;;;10.75;4.75;;;6.40;99.90;;;;;;5049304;28;20532;-41
2023/02/27 09:27:34;;;;;;;9.68;4.15;;;8.50;99.90;;;;;;5048419;28;20116;-43
2023/02/27 09:30:00;;;;;;;7.13;3.85;;;10.70;98.20;;;;;;5049491;28;20030;-42
2023/02/27 09:32:26;;;;;;;10.40;4.53;;;12.70;90.60;;;;;;5041448;28;20094;-40
2023/02/27 09:34:52;;;;;;;9.20;4.60;;;13.90;78.60;;;;;;5052382;28;20381;-43
2023/02/27 09:37:18;;;;;;;7.55;3.97;;;14.30;72.50;;;;;;5049527;28;20021;-42
2023/02/27 09:39:44;;;;;;;8.20;3.95;;;14.80;69.70;;;;;;5052943;28;20440;-43
2023/02/27 09:42:23;;;;;;;6.53;3.38;;;15.40;67.90;;;;;;5045922;28;20027;-42
2023/02/27 09:44:52;;;;;;;6.60;3.42;;;16.00;66.10;;;;;;5054148;28;20028;-42
2023/02/27 09:47:27;;;;;;;6.55;3.65;;;16.90;63.30;;;;;;5048534;28;20372;-42
2023/02/27 09:50:01;;;;;;;6.45;2.97;;;17.70;59.70;;;;;;5046742;28;20491;-42
2023/02/27 09:52:28;;;;;;;8.80;3.83;;;17.60;59.40;;;;;;5053391;28;20029;-43
2023/02/27 09:54:54;;;;;;;7.00;3.63;;;17.50;59.20;;;;;;5043448;28;20117;-42
2023/02/27 09:58:01;;;;;;;7.55;4.18;;;18.40;57.50;;;;;;5047791;28;20388;-42
2023/02/27 10:00:44;;;;;;;6.85;2.85;;;18.80;56.40;;;;;;5011157;28;20046;-43
2023/02/27 10:03:44;;;;;;;4.97;2.90;;;19.20;55.00;;;;;;5047036;28;20510;-41
2023/02/27 10:06:17;;;;;;;;;;;18.60;52.60;;;;;;5048025;28;20020;-43
2023/02/27 10:08:58;;;;;;;7.13;2.58;;;19.40;52.80;;;;;;5052527;28;19970;-44
2023/02/27 10:11:44;;;;;;;6.32;2.83;;;19.20;53.80;;;;;;5047485;28;20040;-43
2023/02/27 10:14:32;;;;;;;5.43;2.30;;;18.50;54.50;;;;;;5049785;28;20055;-43
2023/02/27 10:17:02;;;;;;;6.20;2.45;;;17.10;55.10;;;;;;5051131;28;20027;-41
2023/02/27 10:19:32;;;;;;;7.68;3.15;;;15.80;59.10;;;;;;5048234;28;20017;-44
2023/02/27 10:22:02;;;;;;;5.87;2.73;;;16.80;57.20;;;;;;5047584;28;20517;-43
2023/02/27 10:24:43;;;;;;;6.07;3.08;;;17.50;57.70;;;;;;5048794;28;20021;-42
2023/02/27 10:27:16;;;;;;;8.15;2.88;;;18.10;56.00;;;;;;5051879;28;20059;-42
2023/02/27 10:29:42;;;;;;;5.07;2.28;;;19.00;54.10;;;;;;5047188;28;20489;-43
2023/02/27 10:32:23;;;;;;;5.82;2.85;;;19.70;52.50;;;;;;5047911;28;20056;-41
2023/02/27 10:35:06;;;;;;;4.40;2.10;;;19.50;51.10;;;;;;5052143;28;20063;-44
2023/02/27 10:37:33;;;;;;;5.80;2.20;;;20.70;50.30;;;;;;5049576;28;20021;-41
2023/02/27 10:40:03;;;;;;;4.68;2.53;;;20.40;51.20;;;;;;5047720;28;20355;-42
2023/02/27 10:42:35;;;;;;;7.70;3.03;;;20.60;51.90;;;;;;5047571;28;20070;-42
2023/02/27 10:45:02;;;;;;;4.65;2.75;;;21.00;48.80;;;;;;5048366;28;20505;-40
2023/02/27 10:47:28;;;;;;;6.32;2.90;;;20.70;49.80;;;;;;5051945;28;20028;-40
2023/02/27 10:49:54;;;;;;;5.97;3.25;;;19.40;49.40;;;;;;5047800;28;20359;-43
2023/02/27 10:52:20;;;;;;;7.80;3.65;;;16.50;54.10;;;;;;5047682;28;20056;-42
2023/02/27 10:54:46;;;;;;;5.55;3.15;;;14.80;57.20;;;;;;5047656;28;20048;-43
2023/02/27 10:57:24;;;;;;;4.22;2.30;;;14.60;59.40;;;;;;5048082;28;20040;-43
2023/02/27 10:59:57;;;;;;;5.43;2.60;;;14.90;62.00;;;;;;5047430;28;20024;-44
2023/02/27 11:02:40;;;;;;;6.78;2.75;;;15.80;58.50;;;;;;5048444;28;20028;-43
2023/02/27 11:05:27;;;;;;;4.32;2.20;;;17.30;56.70;;;;;;5050279;28;20017;-42
2023/02/27 11:07:55;;;;;;;5.55;2.25;;;18.10;53.40;;;;;;5051853;28;20095;-44
2023/02/27 11:10:27;;;;;;;5.68;1.90;;;18.70;53.40;;;;;;5051782;28;20043;-43
2023/02/27 11:12:58;;;;;;;4.45;2.35;;;19.80;51.40;;;;;;5051264;28;20411;-43
2023/02/27 11:15:27;;;;;;;6.40;3.30;;;19.90;51.00;;;;;;5052296;28;20078;-43
2023/02/27 11:17:53;;;;;;;6.65;3.25;;;18.50;51.40;;;;;;5051799;28;20013;-43
2023/02/27 11:20:39;;;;;;;3.97;2.25;;;18.10;54.10;;;;;;5051637;28;20021;-42
2023/02/27 11:23:17;;;;;;;4.53;2.10;;;19.40;51.60;;;;;;5051660;28;20025;-45
2023/02/27 11:25:43;;;;;;;5.22;2.45;;;20.10;50.00;;;;;;5051872;28;20025;-42
2023/02/27 11:28:23;;;;;;;6.13;2.88;;;20.00;48.60;;;;;;5050794;28;20025;-42
2023/02/27 11:31:14;;;;;;;9.73;2.58;;;18.50;50.70;;;;;;5052003;28;20017;-43
2023/02/27 11:33:53;;;;;;;4.63;3.13;;;17.70;54.30;;;;;;5056725;28;20028;-45
2023/02/27 11:36:22;;;;;;;5.95;2.90;;;17.80;53.60;;;;;;5065467;28;20025;-44
2023/02/27 11:38:55;;;;;;;4.68;2.72;;;17.00;53.20;;;;;;5060669;28;20024;-41
2023/02/27 11:41:31;;;;;;;5.60;2.70;;;15.30;56.50;;;;;;5051619;28;20029;-43
2023/02/27 11:43:58;;;;;;;6.43;2.28;;;13.90;59.00;;;;;;5050377;28;20035;-44
2023/02/27 11:46:25;;;;;;;6.63;2.20;;;14.40;60.60;;;;;;5050109;28;20044;-45
2023/02/27 11:49:15;;;;;;;5.70;2.35;;;15.40;58.00;;;;;;5050128;28;20025;-45
2023/02/27 11:52:23;;;;;;;6.28;2.40;;;16.80;54.00;;;;;;5051265;28;20342;-42
2023/02/27 11:54:52;;;;;;;6.40;2.30;;;18.30;51.80;;;;;;5003268;28;20034;-43
2023/02/27 11:57:36;;;;;;;2.63;2.00;;;18.30;51.80;;;;;;4993306;28;20066;-42
2023/02/27 12:00:19;;;;;;;5.05;2.30;;;16.80;52.80;;;;;;5026261;28;20040;-42
2023/02/27 12:02:54;;;;;;;4.15;2.10;;;15.70;55.10;;;;;;5045465;28;20036;-41
2023/02/27 12:05:21;;;;;;;6.82;2.58;;;15.10;58.00;;;;;;5051048;28;20017;-41
2023/02/27 12:07:59;;;;;;;5.35;2.92;;;14.60;59.20;;;;;;5050238;28;20071;-41
2023/02/27 12:10:28;;;;;;;4.00;2.70;;;14.50;58.40;;;;;;5050439;28;20045;-44
2023/02/27 12:13:11;;;;;;;4.68;2.03;;;14.70;57.60;;;;;;5052299;28;20490;-43
2023/02/27 12:15:49;;;;;;;4.43;2.45;;;13.90;60.10;;;;;;5049675;28;20060;-42
2023/02/27 12:18:39;;;;;;;5.88;2.30;;;12.80;61.00;;;;;;5049475;28;20022;-44
2023/02/27 12:21:14;;;;;;;6.38;3.22;;;12.10;62.50;;;;;;5051065;28;20061;-40
2023/02/27 12:23:52;;;;;;;5.22;2.58;;;11.70;64.40;;;;;;5050807;28;20393;-41
2023/02/27 12:26:26;;;;;;;4.30;2.22;;;12.60;63.60;;;;;;5049500;28;20433;-44
2023/02/27 12:29:10;;;;;;;3.03;2.00;;;14.00;59.20;;;;;;5050715;28;20028;-43
2023/02/27 12:31:35;;;;;;;6.30;2.67;;;14.90;58.70;;;;;;5050756;28;20056;-44
2023/02/27 12:34:14;;;;;;;7.63;2.42;;;15.20;58.00;;;;;;5048339;28;20021;-41
2023/02/27 12:36:39;;;;;;;8.60;2.50;;;15.40;57.00;;;;;;5049064;28;20567;-43
2023/02/27 12:39:12;;;;;;;5.47;2.08;;;14.90;57.30;;;;;;5050552;28;20070;-42
2023/02/27 12:42:03;;;;;;;4.55;2.08;;;14.80;57.30;;;;;;5050780;28;20033;-41
2023/02/27 12:44:47;;;;;;;2.40;1.92;;;15.00;57.50;;;;;;5049431;28;20025;-40
2023/02/27 12:47:36;;;;;;;4.32;2.42;;;13.80;57.90;;;;;;5050477;28;20051;-42
2023/02/27 12:50:11;;;;;;;4.95;2.22;;;14.00;60.00;;;;;;5050023;28;20021;-41
2023/02/27 12:52:54;;;;;;;4.57;1.95;;;13.60;60.00;;;;;;5050085;28;20112;-41
2023/02/27 12:55:43;;;;;;;5.38;2.38;;;12.70;61.20;;;;;;5050365;28;20021;-41
2023/02/27 12:58:23;;;;;;;4.65;1.73;;;12.20;60.00;;;;;;5049976;28;20033;-41
2023/02/27 13:01:04;;;;;;;6.45;1.98;;;11.40;61.90;;;;;;5049469;28;20024;-40
2023/02/27 13:03:57;;;;;;;4.13;2.03;;;10.70;64.10;;;;;;5044316;28;20060;-42
2023/02/27 13:06:33;;;;;;;3.80;2.35;;;10.20;66.80;;;;;;5050234;28;20028;-42
2023/02/27 13:09:07;;;;;;;4.72;2.30;;;10.00;66.80;;;;;;5050124;28;20013;-40
2023/02/27 13:11:57;;;;;;;6.03;2.97;;;9.40;69.40;;;;;;5048458;28;20057;-40
2023/02/27 13:14:39;;;;;;;6.20;2.53;;;9.10;71.90;;;;;;5049350;28;20383;-41
2023/02/27 13:17:19;;;;;;;5.15;1.95;;;8.90;72.00;;;;;;5050049;28;20029;-41
2023/02/27 13:19:51;;;;;;;3.92;1.90;;;8.60;72.90;;;;;;5049380;28;20477;-41